sensor_id;sensor_type;location;lat;lon;timestamp;P1;durP1;ratioP1;P2;durP2;ratioP2
26690;SDS011;14307;51.718;8.938;2022-08-01T00:00:07;56.13;;;34.35;;
26690;SDS011;14307;51.718;8.938;2022-08-01T00:02:39;63.90;;;36.22;;
26690;SDS011;14307;51.718;8.938;2022-08-01T00:05:07;61.95;;;37.03;;
26690;SDS011;14307;51.718;8.938;2022-08-01T00:07:35;60.53;;;35.47;;
26690;SDS011;14307;51.718;8.938;2022-08-01T00:10:05;55.35;;;34.70;;
26690;SDS011;14307;51.718;8.938;2022-08-01T00:12:34;56.10;;;34.50;;
26690;SDS011;14307;51.718;8.938;2022-08-01T00:15:01;58.22;;;34.50;;
26690;SDS011;14307;51.718;8.938;2022-08-01T00:17:29;67.25;;;36.90;;
26690;SDS011;14307;51.718;8.938;2022-08-01T00:19:56;54.63;;;34.28;;
26690;SDS011;14307;51.718;8.938;2022-08-01T00:22:23;65.38;;;40.00;;
26690;SDS011;14307;51.718;8.938;2022-08-01T00:24:49;63.33;;;38.15;;
26690;SDS011;14307;51.718;8.938;2022-08-01T00:27:16;55.50;;;35.05;;
26690;SDS011;14307;51.718;8.938;2022-08-01T00:29:43;65.07;;;35.72;;
26690;SDS011;14307;51.718;8.938;2022-08-01T00:32:30;51.97;;;33.42;;
26690;SDS011;14307;51.718;8.938;2022-08-01T00:34:58;56.40;;;36.10;;
26690;SDS011;14307;51.718;8.938;2022-08-01T00:37:25;62.50;;;37.13;;
26690;SDS011;14307;51.718;8.938;2022-08-01T00:39:52;51.28;;;31.17;;
26690;SDS011;14307;51.718;8.938;2022-08-01T00:42:19;53.47;;;33.63;;
26690;SDS011;14307;51.718;8.938;2022-08-01T00:44:46;53.35;;;34.03;;
26690;SDS011;14307;51.718;8.938;2022-08-01T00:47:13;57.00;;;31.88;;
26690;SDS011;14307;51.718;8.938;2022-08-01T00:49:39;56.30;;;35.17;;
26690;SDS011;14307;51.718;8.938;2022-08-01T00:52:06;48.05;;;30.92;;
26690;SDS011;14307;51.718;8.938;2022-08-01T00:54:36;51.65;;;31.80;;
26690;SDS011;14307;51.718;8.938;2022-08-01T00:57:03;46.20;;;30.30;;
26690;SDS011;14307;51.718;8.938;2022-08-01T00:59:35;50.97;;;32.08;;
26690;SDS011;14307;51.718;8.938;2022-08-01T01:02:06;44.55;;;28.92;;
26690;SDS011;14307;51.718;8.938;2022-08-01T01:04:40;42.00;;;28.53;;
26690;SDS011;14307;51.718;8.938;2022-08-01T01:07:09;51.17;;;32.72;;
26690;SDS011;14307;51.718;8.938;2022-08-01T01:12:27;58.83;;;34.20;;
26690;SDS011;14307;51.718;8.938;2022-08-01T01:15:14;54.22;;;32.35;;
26690;SDS011;14307;51.718;8.938;2022-08-01T01:17:55;38.45;;;24.92;;
26690;SDS011;14307;51.718;8.938;2022-08-01T01:20:30;35.95;;;22.98;;
26690;SDS011;14307;51.718;8.938;2022-08-01T01:23:26;45.42;;;28.98;;
26690;SDS011;14307;51.718;8.938;2022-08-01T01:31:31;61.03;;;35.28;;
26690;SDS011;14307;51.718;8.938;2022-08-01T01:34:06;67.10;;;35.50;;
26690;SDS011;14307;51.718;8.938;2022-08-01T01:36:35;66.68;;;36.70;;
26690;SDS011;14307;51.718;8.938;2022-08-01T01:39:03;64.90;;;34.90;;
26690;SDS011;14307;51.718;8.938;2022-08-01T01:41:30;57.20;;;35.65;;
26690;SDS011;14307;51.718;8.938;2022-08-01T01:43:57;59.92;;;34.50;;
26690;SDS011;14307;51.718;8.938;2022-08-01T01:46:26;57.63;;;33.92;;
26690;SDS011;14307;51.718;8.938;2022-08-01T01:48:56;59.55;;;33.10;;
26690;SDS011;14307;51.718;8.938;2022-08-01T01:51:24;57.88;;;34.72;;
26690;SDS011;14307;51.718;8.938;2022-08-01T01:53:53;64.65;;;34.70;;
26690;SDS011;14307;51.718;8.938;2022-08-01T01:56:22;54.65;;;33.45;;
26690;SDS011;14307;51.718;8.938;2022-08-01T01:58:52;53.13;;;30.10;;
26690;SDS011;14307;51.718;8.938;2022-08-01T02:01:23;48.85;;;30.70;;
26690;SDS011;14307;51.718;8.938;2022-08-01T02:04:13;48.90;;;29.55;;
26690;SDS011;14307;51.718;8.938;2022-08-01T02:06:40;53.75;;;31.42;;
26690;SDS011;14307;51.718;8.938;2022-08-01T02:09:09;49.67;;;30.20;;
26690;SDS011;14307;51.718;8.938;2022-08-01T02:11:36;49.25;;;28.33;;
26690;SDS011;14307;51.718;8.938;2022-08-01T02:14:26;47.55;;;26.63;;
26690;SDS011;14307;51.718;8.938;2022-08-01T02:16:56;39.55;;;24.40;;
26690;SDS011;14307;51.718;8.938;2022-08-01T02:19:24;40.40;;;24.77;;
26690;SDS011;14307;51.718;8.938;2022-08-01T02:21:52;42.22;;;26.65;;
26690;SDS011;14307;51.718;8.938;2022-08-01T02:24:25;46.33;;;26.23;;
26690;SDS011;14307;51.718;8.938;2022-08-01T02:27:07;43.75;;;27.23;;
26690;SDS011;14307;51.718;8.938;2022-08-01T02:29:40;55.38;;;30.15;;
26690;SDS011;14307;51.718;8.938;2022-08-01T02:32:25;44.95;;;27.25;;
26690;SDS011;14307;51.718;8.938;2022-08-01T02:35:02;47.97;;;28.88;;
26690;SDS011;14307;51.718;8.938;2022-08-01T02:37:34;47.88;;;27.05;;
26690;SDS011;14307;51.718;8.938;2022-08-01T02:40:11;37.08;;;22.65;;
26690;SDS011;14307;51.718;8.938;2022-08-01T02:42:44;36.20;;;22.52;;
26690;SDS011;14307;51.718;8.938;2022-08-01T02:45:13;31.85;;;21.00;;
26690;SDS011;14307;51.718;8.938;2022-08-01T02:47:43;43.67;;;24.38;;
26690;SDS011;14307;51.718;8.938;2022-08-01T02:50:13;39.95;;;25.40;;
26690;SDS011;14307;51.718;8.938;2022-08-01T02:52:43;50.85;;;28.80;;
26690;SDS011;14307;51.718;8.938;2022-08-01T02:55:14;50.63;;;28.60;;
26690;SDS011;14307;51.718;8.938;2022-08-01T02:57:44;45.47;;;25.73;;
26690;SDS011;14307;51.718;8.938;2022-08-01T03:00:17;40.95;;;24.50;;
26690;SDS011;14307;51.718;8.938;2022-08-01T03:02:48;44.08;;;26.33;;
26690;SDS011;14307;51.718;8.938;2022-08-01T03:05:20;49.35;;;25.85;;
26690;SDS011;14307;51.718;8.938;2022-08-01T03:07:47;48.05;;;26.17;;
26690;SDS011;14307;51.718;8.938;2022-08-01T03:10:16;39.88;;;23.65;;
26690;SDS011;14307;51.718;8.938;2022-08-01T03:12:44;38.95;;;23.85;;
26690;SDS011;14307;51.718;8.938;2022-08-01T03:15:13;42.88;;;26.60;;
26690;SDS011;14307;51.718;8.938;2022-08-01T03:17:43;40.35;;;24.60;;
26690;SDS011;14307;51.718;8.938;2022-08-01T03:20:14;36.45;;;24.20;;
26690;SDS011;14307;51.718;8.938;2022-08-01T03:22:51;39.53;;;25.77;;
26690;SDS011;14307;51.718;8.938;2022-08-01T03:25:19;42.47;;;24.48;;
26690;SDS011;14307;51.718;8.938;2022-08-01T03:27:47;36.05;;;23.63;;
26690;SDS011;14307;51.718;8.938;2022-08-01T03:30:21;39.60;;;23.65;;
26690;SDS011;14307;51.718;8.938;2022-08-01T03:32:49;45.88;;;23.15;;
26690;SDS011;14307;51.718;8.938;2022-08-01T03:35:16;36.53;;;23.00;;
26690;SDS011;14307;51.718;8.938;2022-08-01T03:37:46;34.92;;;23.48;;
26690;SDS011;14307;51.718;8.938;2022-08-01T03:40:38;35.05;;;21.38;;
26690;SDS011;14307;51.718;8.938;2022-08-01T03:43:09;32.85;;;20.35;;
26690;SDS011;14307;51.718;8.938;2022-08-01T03:45:45;29.17;;;18.63;;
26690;SDS011;14307;51.718;8.938;2022-08-01T03:48:16;27.15;;;18.13;;
26690;SDS011;14307;51.718;8.938;2022-08-01T03:50:50;33.25;;;19.77;;
26690;SDS011;14307;51.718;8.938;2022-08-01T03:53:20;38.58;;;19.90;;
26690;SDS011;14307;51.718;8.938;2022-08-01T03:55:50;23.63;;;16.15;;
26690;SDS011;14307;51.718;8.938;2022-08-01T03:58:21;27.25;;;18.10;;
26690;SDS011;14307;51.718;8.938;2022-08-01T04:00:48;31.85;;;17.98;;
26690;SDS011;14307;51.718;8.938;2022-08-01T04:03:15;24.60;;;16.00;;
26690;SDS011;14307;51.718;8.938;2022-08-01T04:05:45;23.27;;;15.65;;
26690;SDS011;14307;51.718;8.938;2022-08-01T04:08:12;28.00;;;17.73;;
26690;SDS011;14307;51.718;8.938;2022-08-01T04:10:39;29.75;;;17.50;;
26690;SDS011;14307;51.718;8.938;2022-08-01T04:13:06;22.50;;;15.43;;
26690;SDS011;14307;51.718;8.938;2022-08-01T04:15:33;25.15;;;15.88;;
26690;SDS011;14307;51.718;8.938;2022-08-01T04:18:00;28.50;;;16.10;;
26690;SDS011;14307;51.718;8.938;2022-08-01T04:20:27;27.10;;;15.90;;
26690;SDS011;14307;51.718;8.938;2022-08-01T04:22:54;23.95;;;15.82;;
26690;SDS011;14307;51.718;8.938;2022-08-01T04:25:33;22.73;;;15.30;;
26690;SDS011;14307;51.718;8.938;2022-08-01T04:28:05;23.58;;;15.57;;
26690;SDS011;14307;51.718;8.938;2022-08-01T04:30:37;22.30;;;15.70;;
26690;SDS011;14307;51.718;8.938;2022-08-01T04:33:06;26.80;;;17.80;;
26690;SDS011;14307;51.718;8.938;2022-08-01T04:35:34;27.00;;;17.75;;
26690;SDS011;14307;51.718;8.938;2022-08-01T04:38:23;29.38;;;18.63;;
26690;SDS011;14307;51.718;8.938;2022-08-01T04:40:53;30.30;;;19.40;;
26690;SDS011;14307;51.718;8.938;2022-08-01T04:43:20;34.63;;;19.27;;
26690;SDS011;14307;51.718;8.938;2022-08-01T04:45:49;32.83;;;19.83;;
26690;SDS011;14307;51.718;8.938;2022-08-01T04:48:17;34.60;;;20.23;;
26690;SDS011;14307;51.718;8.938;2022-08-01T04:50:48;29.55;;;17.85;;
26690;SDS011;14307;51.718;8.938;2022-08-01T04:53:16;33.97;;;20.92;;
26690;SDS011;14307;51.718;8.938;2022-08-01T04:55:48;35.10;;;20.05;;
26690;SDS011;14307;51.718;8.938;2022-08-01T04:58:15;35.80;;;20.95;;
26690;SDS011;14307;51.718;8.938;2022-08-01T05:00:45;37.33;;;22.30;;
26690;SDS011;14307;51.718;8.938;2022-08-01T05:03:15;34.67;;;19.58;;
26690;SDS011;14307;51.718;8.938;2022-08-01T05:05:42;35.47;;;21.17;;
26690;SDS011;14307;51.718;8.938;2022-08-01T05:08:08;36.25;;;20.13;;
26690;SDS011;14307;51.718;8.938;2022-08-01T05:10:36;31.42;;;19.30;;
26690;SDS011;14307;51.718;8.938;2022-08-01T05:13:02;35.20;;;19.45;;
26690;SDS011;14307;51.718;8.938;2022-08-01T05:15:29;36.15;;;20.35;;
26690;SDS011;14307;51.718;8.938;2022-08-01T05:17:57;29.75;;;19.15;;
26690;SDS011;14307;51.718;8.938;2022-08-01T05:20:24;31.85;;;17.35;;
26690;SDS011;14307;51.718;8.938;2022-08-01T05:22:50;31.45;;;18.65;;
26690;SDS011;14307;51.718;8.938;2022-08-01T05:25:17;25.83;;;16.58;;
26690;SDS011;14307;51.718;8.938;2022-08-01T05:28:04;35.33;;;18.95;;
26690;SDS011;14307;51.718;8.938;2022-08-01T05:30:31;32.67;;;17.88;;
26690;SDS011;14307;51.718;8.938;2022-08-01T05:32:58;30.05;;;18.20;;
26690;SDS011;14307;51.718;8.938;2022-08-01T05:35:25;35.13;;;19.52;;
26690;SDS011;14307;51.718;8.938;2022-08-01T05:38:11;33.92;;;18.48;;
26690;SDS011;14307;51.718;8.938;2022-08-01T05:40:40;29.92;;;17.90;;
26690;SDS011;14307;51.718;8.938;2022-08-01T05:43:07;35.67;;;18.80;;
26690;SDS011;14307;51.718;8.938;2022-08-01T05:45:33;29.65;;;17.13;;
26690;SDS011;14307;51.718;8.938;2022-08-01T05:48:00;17.48;;;10.88;;
26690;SDS011;14307;51.718;8.938;2022-08-01T05:50:27;22.10;;;11.82;;
26690;SDS011;14307;51.718;8.938;2022-08-01T05:52:54;18.23;;;11.90;;
26690;SDS011;14307;51.718;8.938;2022-08-01T05:55:21;19.75;;;11.40;;
26690;SDS011;14307;51.718;8.938;2022-08-01T05:57:47;17.33;;;11.02;;
26690;SDS011;14307;51.718;8.938;2022-08-01T06:00:14;16.90;;;10.50;;
26690;SDS011;14307;51.718;8.938;2022-08-01T06:02:42;15.70;;;10.13;;
26690;SDS011;14307;51.718;8.938;2022-08-01T06:05:12;16.27;;;10.07;;
26690;SDS011;14307;51.718;8.938;2022-08-01T06:07:39;14.82;;;11.18;;
26690;SDS011;14307;51.718;8.938;2022-08-01T06:10:06;18.98;;;12.30;;
26690;SDS011;14307;51.718;8.938;2022-08-01T06:12:37;16.33;;;11.18;;
26690;SDS011;14307;51.718;8.938;2022-08-01T06:15:05;16.50;;;12.13;;
26690;SDS011;14307;51.718;8.938;2022-08-01T06:17:33;20.90;;;14.57;;
26690;SDS011;14307;51.718;8.938;2022-08-01T06:20:00;15.65;;;11.70;;
26690;SDS011;14307;51.718;8.938;2022-08-01T06:22:26;16.98;;;12.40;;
26690;SDS011;14307;51.718;8.938;2022-08-01T06:24:54;17.05;;;11.25;;
26690;SDS011;14307;51.718;8.938;2022-08-01T06:27:20;20.48;;;12.30;;
26690;SDS011;14307;51.718;8.938;2022-08-01T06:29:48;13.35;;;8.27;;
26690;SDS011;14307;51.718;8.938;2022-08-01T06:32:19;9.18;;;6.60;;
26690;SDS011;14307;51.718;8.938;2022-08-01T06:34:54;11.50;;;7.88;;
26690;SDS011;14307;51.718;8.938;2022-08-01T06:37:21;7.90;;;6.13;;
26690;SDS011;14307;51.718;8.938;2022-08-01T06:39:49;9.40;;;6.05;;
26690;SDS011;14307;51.718;8.938;2022-08-01T06:42:16;9.73;;;6.13;;
26690;SDS011;14307;51.718;8.938;2022-08-01T06:44:43;11.75;;;6.53;;
26690;SDS011;14307;51.718;8.938;2022-08-01T06:47:10;9.77;;;5.82;;
26690;SDS011;14307;51.718;8.938;2022-08-01T06:49:37;9.60;;;5.97;;
26690;SDS011;14307;51.718;8.938;2022-08-01T06:52:04;8.75;;;4.72;;
26690;SDS011;14307;51.718;8.938;2022-08-01T06:54:31;8.32;;;6.70;;
26690;SDS011;14307;51.718;8.938;2022-08-01T06:56:58;13.13;;;8.45;;
26690;SDS011;14307;51.718;8.938;2022-08-01T06:59:25;13.55;;;7.88;;
26690;SDS011;14307;51.718;8.938;2022-08-01T07:01:52;11.43;;;7.32;;
26690;SDS011;14307;51.718;8.938;2022-08-01T07:04:18;8.40;;;6.75;;
26690;SDS011;14307;51.718;8.938;2022-08-01T07:06:45;6.65;;;4.07;;
26690;SDS011;14307;51.718;8.938;2022-08-01T07:09:12;3.38;;;3.03;;
26690;SDS011;14307;51.718;8.938;2022-08-01T07:11:40;6.35;;;4.05;;
26690;SDS011;14307;51.718;8.938;2022-08-01T07:14:07;3.28;;;2.53;;
26690;SDS011;14307;51.718;8.938;2022-08-01T07:16:34;3.15;;;2.42;;
26690;SDS011;14307;51.718;8.938;2022-08-01T07:19:01;8.63;;;4.10;;
26690;SDS011;14307;51.718;8.938;2022-08-01T07:21:28;4.60;;;3.42;;
26690;SDS011;14307;51.718;8.938;2022-08-01T07:24:07;6.55;;;4.30;;
26690;SDS011;14307;51.718;8.938;2022-08-01T07:26:40;3.50;;;3.20;;
26690;SDS011;14307;51.718;8.938;2022-08-01T07:29:19;4.95;;;4.35;;
26690;SDS011;14307;51.718;8.938;2022-08-01T07:31:47;12.60;;;6.00;;
26690;SDS011;14307;51.718;8.938;2022-08-01T07:34:14;8.45;;;4.90;;
26690;SDS011;14307;51.718;8.938;2022-08-01T07:36:40;6.15;;;4.88;;
26690;SDS011;14307;51.718;8.938;2022-08-01T07:39:07;6.30;;;4.30;;
26690;SDS011;14307;51.718;8.938;2022-08-01T07:41:34;6.05;;;3.95;;
26690;SDS011;14307;51.718;8.938;2022-08-01T07:44:21;3.65;;;3.13;;
26690;SDS011;14307;51.718;8.938;2022-08-01T07:46:48;10.02;;;5.78;;
26690;SDS011;14307;51.718;8.938;2022-08-01T07:49:14;6.05;;;4.82;;
26690;SDS011;14307;51.718;8.938;2022-08-01T07:51:42;11.02;;;5.05;;
26690;SDS011;14307;51.718;8.938;2022-08-01T07:54:28;8.15;;;5.35;;
26690;SDS011;14307;51.718;8.938;2022-08-01T07:56:59;8.82;;;6.00;;
26690;SDS011;14307;51.718;8.938;2022-08-01T07:59:27;6.07;;;4.53;;
26690;SDS011;14307;51.718;8.938;2022-08-01T08:01:54;7.10;;;4.80;;
26690;SDS011;14307;51.718;8.938;2022-08-01T08:04:21;5.10;;;3.38;;
26690;SDS011;14307;51.718;8.938;2022-08-01T08:06:48;4.43;;;3.50;;
26690;SDS011;14307;51.718;8.938;2022-08-01T08:09:15;3.33;;;2.58;;
26690;SDS011;14307;51.718;8.938;2022-08-01T08:11:44;5.63;;;3.80;;
26690;SDS011;14307;51.718;8.938;2022-08-01T08:14:13;4.68;;;4.18;;
26690;SDS011;14307;51.718;8.938;2022-08-01T08:16:41;5.93;;;5.32;;
26690;SDS011;14307;51.718;8.938;2022-08-01T08:19:08;5.43;;;4.65;;
26690;SDS011;14307;51.718;8.938;2022-08-01T08:21:36;7.10;;;5.70;;
26690;SDS011;14307;51.718;8.938;2022-08-01T08:24:03;4.80;;;4.20;;
26690;SDS011;14307;51.718;8.938;2022-08-01T08:26:59;5.40;;;4.90;;
26690;SDS011;14307;51.718;8.938;2022-08-01T08:29:27;4.55;;;4.15;;
26690;SDS011;14307;51.718;8.938;2022-08-01T08:31:56;5.30;;;4.80;;
26690;SDS011;14307;51.718;8.938;2022-08-01T08:34:23;6.47;;;5.88;;
26690;SDS011;14307;51.718;8.938;2022-08-01T08:36:51;6.57;;;5.97;;
26690;SDS011;14307;51.718;8.938;2022-08-01T08:39:18;8.23;;;7.43;;
26690;SDS011;14307;51.718;8.938;2022-08-01T08:41:46;8.82;;;7.95;;
26690;SDS011;14307;51.718;8.938;2022-08-01T08:44:14;7.65;;;6.95;;
26690;SDS011;14307;51.718;8.938;2022-08-01T08:46:46;9.65;;;8.65;;
26690;SDS011;14307;51.718;8.938;2022-08-01T08:49:16;11.10;;;9.07;;
26690;SDS011;14307;51.718;8.938;2022-08-01T08:52:02;11.13;;;8.23;;
26690;SDS011;14307;51.718;8.938;2022-08-01T08:54:30;10.15;;;7.78;;
26690;SDS011;14307;51.718;8.938;2022-08-01T08:56:59;11.35;;;8.48;;
26690;SDS011;14307;51.718;8.938;2022-08-01T08:59:26;7.43;;;6.43;;
26690;SDS011;14307;51.718;8.938;2022-08-01T09:01:54;9.90;;;7.63;;
26690;SDS011;14307;51.718;8.938;2022-08-01T09:04:22;9.30;;;7.93;;
26690;SDS011;14307;51.718;8.938;2022-08-01T09:06:52;8.98;;;7.22;;
26690;SDS011;14307;51.718;8.938;2022-08-01T09:09:19;9.85;;;8.85;;
26690;SDS011;14307;51.718;8.938;2022-08-01T09:11:46;10.88;;;9.73;;
26690;SDS011;14307;51.718;8.938;2022-08-01T09:14:23;12.90;;;11.00;;
26690;SDS011;14307;51.718;8.938;2022-08-01T09:19:36;10.30;;;8.00;;
26690;SDS011;14307;51.718;8.938;2022-08-01T09:22:09;8.65;;;7.85;;
26690;SDS011;14307;51.718;8.938;2022-08-01T09:24:38;8.70;;;6.97;;
26690;SDS011;14307;51.718;8.938;2022-08-01T09:27:17;9.40;;;8.05;;
26690;SDS011;14307;51.718;8.938;2022-08-01T09:29:51;9.65;;;8.30;;
26690;SDS011;14307;51.718;8.938;2022-08-01T09:32:27;8.98;;;8.07;;
26690;SDS011;14307;51.718;8.938;2022-08-01T09:35:22;9.07;;;8.18;;
26690;SDS011;14307;51.718;8.938;2022-08-01T09:40:55;10.80;;;9.15;;
26690;SDS011;14307;51.718;8.938;2022-08-01T09:43:27;11.40;;;9.40;;
26690;SDS011;14307;51.718;8.938;2022-08-01T09:45:57;10.40;;;9.30;;
26690;SDS011;14307;51.718;8.938;2022-08-01T09:48:24;14.27;;;11.55;;
26690;SDS011;14307;51.718;8.938;2022-08-01T09:50:55;9.93;;;8.88;;
26690;SDS011;14307;51.718;8.938;2022-08-01T09:53:44;8.88;;;8.10;;
26690;SDS011;14307;51.718;8.938;2022-08-01T09:56:18;9.60;;;8.85;;
26690;SDS011;14307;51.718;8.938;2022-08-01T09:58:53;12.07;;;11.23;;
26690;SDS011;14307;51.718;8.938;2022-08-01T10:01:28;10.75;;;9.95;;
26690;SDS011;14307;51.718;8.938;2022-08-01T10:06:37;13.05;;;12.15;;
26690;SDS011;14307;51.718;8.938;2022-08-01T10:09:07;13.10;;;12.07;;
26690;SDS011;14307;51.718;8.938;2022-08-01T10:11:34;12.65;;;11.65;;
26690;SDS011;14307;51.718;8.938;2022-08-01T10:14:05;12.73;;;11.82;;
26690;SDS011;14307;51.718;8.938;2022-08-01T10:16:34;13.43;;;12.43;;
26690;SDS011;14307;51.718;8.938;2022-08-01T10:19:05;12.68;;;11.77;;
26690;SDS011;14307;51.718;8.938;2022-08-01T10:21:40;12.27;;;11.38;;
26690;SDS011;14307;51.718;8.938;2022-08-01T10:24:24;12.48;;;11.43;;
26690;SDS011;14307;51.718;8.938;2022-08-01T10:26:58;13.20;;;12.20;;
26690;SDS011;14307;51.718;8.938;2022-08-01T10:29:36;12.00;;;10.90;;
26690;SDS011;14307;51.718;8.938;2022-08-01T10:32:25;12.95;;;11.65;;
26690;SDS011;14307;51.718;8.938;2022-08-01T10:34:54;13.48;;;12.18;;
26690;SDS011;14307;51.718;8.938;2022-08-01T10:37:22;17.77;;;11.65;;
26690;SDS011;14307;51.718;8.938;2022-08-01T10:39:55;14.52;;;10.23;;
26690;SDS011;14307;51.718;8.938;2022-08-01T10:42:43;10.60;;;9.27;;
26690;SDS011;14307;51.718;8.938;2022-08-01T10:45:12;10.07;;;8.30;;
26690;SDS011;14307;51.718;8.938;2022-08-01T10:47:56;8.95;;;8.05;;
26690;SDS011;14307;51.718;8.938;2022-08-01T10:50:47;9.32;;;8.32;;
26690;SDS011;14307;51.718;8.938;2022-08-01T10:55:50;17.00;;;10.95;;
26690;SDS011;14307;51.718;8.938;2022-08-01T11:03:43;22.25;;;12.95;;
26690;SDS011;14307;51.718;8.938;2022-08-01T11:12:02;20.73;;;12.80;;
26690;SDS011;14307;51.718;8.938;2022-08-01T11:20:14;11.00;;;8.52;;
26690;SDS011;14307;51.718;8.938;2022-08-01T11:28:23;10.73;;;3.90;;
26690;SDS011;14307;51.718;8.938;2022-08-01T11:41:09;5.13;;;4.72;;
26690;SDS011;14307;51.718;8.938;2022-08-01T11:46:59;6.05;;;5.32;;
26690;SDS011;14307;51.718;8.938;2022-08-01T11:52:28;10.50;;;7.75;;
26690;SDS011;14307;51.718;8.938;2022-08-01T11:57:36;7.55;;;6.78;;
26690;SDS011;14307;51.718;8.938;2022-08-01T12:00:11;8.60;;;6.90;;
26690;SDS011;14307;51.718;8.938;2022-08-01T12:02:42;9.27;;;8.20;;
26690;SDS011;14307;51.718;8.938;2022-08-01T12:05:12;7.68;;;5.75;;
26690;SDS011;14307;51.718;8.938;2022-08-01T12:07:41;9.30;;;7.00;;
26690;SDS011;14307;51.718;8.938;2022-08-01T12:10:12;6.55;;;5.80;;
26690;SDS011;14307;51.718;8.938;2022-08-01T12:12:45;6.82;;;6.20;;
26690;SDS011;14307;51.718;8.938;2022-08-01T12:15:15;7.68;;;5.72;;
26690;SDS011;14307;51.718;8.938;2022-08-01T12:20:25;6.03;;;5.43;;
26690;SDS011;14307;51.718;8.938;2022-08-01T12:22:58;5.60;;;5.03;;
26690;SDS011;14307;51.718;8.938;2022-08-01T12:25:27;5.20;;;4.70;;
26690;SDS011;14307;51.718;8.938;2022-08-01T12:27:54;3.50;;;3.20;;
26690;SDS011;14307;51.718;8.938;2022-08-01T12:30:25;2.72;;;2.53;;
26690;SDS011;14307;51.718;8.938;2022-08-01T12:32:53;2.20;;;2.10;;
26690;SDS011;14307;51.718;8.938;2022-08-01T12:35:22;3.17;;;2.88;;
26690;SDS011;14307;51.718;8.938;2022-08-01T12:37:54;2.70;;;2.60;;
26690;SDS011;14307;51.718;8.938;2022-08-01T12:40:31;2.65;;;2.55;;
26690;SDS011;14307;51.718;8.938;2022-08-01T12:43:08;2.85;;;2.72;;
26690;SDS011;14307;51.718;8.938;2022-08-01T12:45:53;3.15;;;2.95;;
26690;SDS011;14307;51.718;8.938;2022-08-01T12:48:22;3.58;;;2.50;;
26690;SDS011;14307;51.718;8.938;2022-08-01T12:50:51;4.10;;;3.70;;
26690;SDS011;14307;51.718;8.938;2022-08-01T12:53:19;3.38;;;3.20;;
26690;SDS011;14307;51.718;8.938;2022-08-01T12:55:48;3.65;;;3.53;;
26690;SDS011;14307;51.718;8.938;2022-08-01T12:58:29;4.35;;;4.15;;
26690;SDS011;14307;51.718;8.938;2022-08-01T13:01:02;3.85;;;3.70;;
26690;SDS011;14307;51.718;8.938;2022-08-01T13:03:31;4.05;;;3.85;;
26690;SDS011;14307;51.718;8.938;2022-08-01T13:05:59;6.07;;;5.88;;
26690;SDS011;14307;51.718;8.938;2022-08-01T13:08:29;5.60;;;5.25;;
26690;SDS011;14307;51.718;8.938;2022-08-01T13:13:39;8.50;;;8.07;;
26690;SDS011;14307;51.718;8.938;2022-08-01T13:16:14;8.98;;;8.45;;
26690;SDS011;14307;51.718;8.938;2022-08-01T13:19:03;7.90;;;7.60;;
26690;SDS011;14307;51.718;8.938;2022-08-01T13:21:30;7.22;;;6.93;;
26690;SDS011;14307;51.718;8.938;2022-08-01T13:24:22;8.77;;;8.27;;
26690;SDS011;14307;51.718;8.938;2022-08-01T13:29:37;11.80;;;11.20;;
26690;SDS011;14307;51.718;8.938;2022-08-01T13:35:05;11.80;;;11.10;;
26690;SDS011;14307;51.718;8.938;2022-08-01T13:37:35;10.77;;;10.18;;
26690;SDS011;14307;51.718;8.938;2022-08-01T13:40:04;11.98;;;11.18;;
26690;SDS011;14307;51.718;8.938;2022-08-01T13:42:32;11.95;;;11.35;;
26690;SDS011;14307;51.718;8.938;2022-08-01T13:44:59;11.27;;;10.55;;
26690;SDS011;14307;51.718;8.938;2022-08-01T13:47:28;11.20;;;10.60;;
26690;SDS011;14307;51.718;8.938;2022-08-01T13:49:58;11.63;;;11.05;;
26690;SDS011;14307;51.718;8.938;2022-08-01T13:52:28;12.10;;;11.40;;
26690;SDS011;14307;51.718;8.938;2022-08-01T13:54:55;12.48;;;11.88;;
26690;SDS011;14307;51.718;8.938;2022-08-01T13:57:22;13.15;;;12.43;;
26690;SDS011;14307;51.718;8.938;2022-08-01T13:59:49;14.02;;;13.32;;
26690;SDS011;14307;51.718;8.938;2022-08-01T14:02:15;14.35;;;13.55;;
26690;SDS011;14307;51.718;8.938;2022-08-01T14:04:42;14.43;;;13.63;;
26690;SDS011;14307;51.718;8.938;2022-08-01T14:07:09;15.05;;;14.15;;
26690;SDS011;14307;51.718;8.938;2022-08-01T14:09:40;14.55;;;13.85;;
26690;SDS011;14307;51.718;8.938;2022-08-01T14:12:28;14.13;;;13.43;;
26690;SDS011;14307;51.718;8.938;2022-08-01T14:14:54;13.90;;;13.23;;
26690;SDS011;14307;51.718;8.938;2022-08-01T14:17:22;15.75;;;14.75;;
26690;SDS011;14307;51.718;8.938;2022-08-01T14:19:49;15.75;;;14.95;;
26690;SDS011;14307;51.718;8.938;2022-08-01T14:22:16;17.20;;;16.40;;
26690;SDS011;14307;51.718;8.938;2022-08-01T14:24:42;17.95;;;16.95;;
26690;SDS011;14307;51.718;8.938;2022-08-01T14:27:09;18.90;;;17.90;;
26690;SDS011;14307;51.718;8.938;2022-08-01T14:29:36;19.63;;;18.40;;
26690;SDS011;14307;51.718;8.938;2022-08-01T14:32:23;19.08;;;18.05;;
26690;SDS011;14307;51.718;8.938;2022-08-01T14:34:54;19.25;;;17.95;;
26690;SDS011;14307;51.718;8.938;2022-08-01T14:37:22;18.85;;;17.67;;
26690;SDS011;14307;51.718;8.938;2022-08-01T14:39:55;18.85;;;17.80;;
26690;SDS011;14307;51.718;8.938;2022-08-01T14:42:24;18.80;;;17.60;;
26690;SDS011;14307;51.718;8.938;2022-08-01T14:44:51;21.05;;;19.75;;
26690;SDS011;14307;51.718;8.938;2022-08-01T14:47:18;19.65;;;18.55;;
26690;SDS011;14307;51.718;8.938;2022-08-01T14:49:47;20.58;;;19.30;;
26690;SDS011;14307;51.718;8.938;2022-08-01T14:52:15;21.92;;;20.23;;
26690;SDS011;14307;51.718;8.938;2022-08-01T14:54:42;20.42;;;19.23;;
26690;SDS011;14307;51.718;8.938;2022-08-01T14:57:09;21.30;;;20.02;;
26690;SDS011;14307;51.718;8.938;2022-08-01T14:59:35;21.40;;;20.20;;
26690;SDS011;14307;51.718;8.938;2022-08-01T15:02:02;21.30;;;19.40;;
26690;SDS011;14307;51.718;8.938;2022-08-01T15:04:30;20.92;;;19.73;;
26690;SDS011;14307;51.718;8.938;2022-08-01T15:06:56;22.38;;;20.55;;
26690;SDS011;14307;51.718;8.938;2022-08-01T15:09:23;21.75;;;20.33;;
26690;SDS011;14307;51.718;8.938;2022-08-01T15:11:50;21.73;;;20.42;;
26690;SDS011;14307;51.718;8.938;2022-08-01T15:14:17;20.95;;;19.85;;
26690;SDS011;14307;51.718;8.938;2022-08-01T15:17:02;21.02;;;19.92;;
26690;SDS011;14307;51.718;8.938;2022-08-01T15:19:29;22.23;;;20.77;;
26690;SDS011;14307;51.718;8.938;2022-08-01T15:21:56;20.85;;;19.75;;
26690;SDS011;14307;51.718;8.938;2022-08-01T15:24:24;21.60;;;20.33;;
26690;SDS011;14307;51.718;8.938;2022-08-01T15:26:51;21.58;;;20.48;;
26690;SDS011;14307;51.718;8.938;2022-08-01T15:29:18;20.05;;;18.95;;
26690;SDS011;14307;51.718;8.938;2022-08-01T15:31:45;21.20;;;19.90;;
26690;SDS011;14307;51.718;8.938;2022-08-01T15:34:11;20.10;;;19.00;;
26690;SDS011;14307;51.718;8.938;2022-08-01T15:36:38;19.90;;;18.88;;
26690;SDS011;14307;51.718;8.938;2022-08-01T15:39:11;20.90;;;19.60;;
26690;SDS011;14307;51.718;8.938;2022-08-01T15:41:38;20.48;;;19.20;;
26690;SDS011;14307;51.718;8.938;2022-08-01T15:44:05;20.33;;;19.05;;
26690;SDS011;14307;51.718;8.938;2022-08-01T15:46:32;20.52;;;19.42;;
26690;SDS011;14307;51.718;8.938;2022-08-01T15:49:03;20.73;;;19.33;;
26690;SDS011;14307;51.718;8.938;2022-08-01T15:51:31;19.65;;;18.63;;
26690;SDS011;14307;51.718;8.938;2022-08-01T15:53:59;20.30;;;19.20;;
26690;SDS011;14307;51.718;8.938;2022-08-01T15:56:29;20.95;;;19.45;;
26690;SDS011;14307;51.718;8.938;2022-08-01T15:58:56;19.98;;;18.92;;